Time;durP1;ratioP1;P1;durP2;ratioP2;P2;SDS_P1;SDS_P2;PMS_P1;PMS_P2;Temp;Humidity;BMP_temperature;BMP_pressure;BME280_temperature;BME280_humidity;BME280_pressure;Samples;Min_cycle;Max_cycle;Signal;HPM_P1;HPM_P2
2021/04/20 00:01:40;;;;;;;27.83;15.07;;;9.70;92.80;;;;;;4321502;33;20436;-78
2021/04/20 00:04:07;;;;;;;26.63;14.93;;;9.70;92.80;;;;;;4320655;33;20557;-78
2021/04/20 00:06:33;;;;;;;25.70;14.37;;;9.60;93.10;;;;;;4321439;33;20461;-78
2021/04/20 00:09:00;;;;;;;26.53;15.00;;;9.60;93.30;;;;;;4321790;33;20145;-77
2021/04/20 00:11:26;;;;;;;28.50;14.77;;;9.50;93.90;;;;;;4319898;33;20172;-77
2021/04/20 00:13:53;;;;;;;34.37;15.87;;;9.50;94.40;;;;;;4321433;33;20207;-77
2021/04/20 00:16:19;;;;;;;27.57;14.77;;;9.40;94.50;;;;;;4319472;33;20468;-77
2021/04/20 00:18:45;;;;;;;28.60;14.87;;;9.40;94.80;;;;;;4320011;33;20171;-77
2021/04/20 00:21:12;;;;;;;30.13;15.13;;;9.30;95.40;;;;;;4319993;33;20195;-78
2021/04/20 00:23:38;;;;;;;30.03;15.83;;;9.30;95.50;;;;;;4321434;33;20168;-77
2021/04/20 00:26:05;;;;;;;27.70;15.33;;;9.30;95.90;;;;;;4319515;33;20161;-78
2021/04/20 00:28:31;;;;;;;29.17;16.40;;;9.20;96.30;;;;;;4320222;33;20504;-78
2021/04/20 00:30:58;;;;;;;26.77;15.07;;;9.10;97.40;;;;;;4321338;33;20213;-77
2021/04/20 00:33:26;;;;;;;30.13;15.33;;;9.00;97.50;;;;;;4319781;33;20158;-78
2021/04/20 00:35:53;;;;;;;25.40;14.30;;;9.00;97.80;;;;;;4319879;33;20168;-78
2021/04/20 00:38:19;;;;;;;25.53;14.50;;;9.00;98.30;;;;;;4321188;33;20204;-77
2021/04/20 00:40:46;;;;;;;26.77;14.47;;;8.90;98.70;;;;;;4321226;33;20187;-78
2021/04/20 00:43:12;;;;;;;28.33;14.53;;;8.90;98.50;;;;;;4321197;33;20175;-77
2021/04/20 00:45:39;;;;;;;27.03;14.73;;;8.90;98.90;;;;;;4321208;33;20150;-77
2021/04/20 00:48:07;;;;;;;32.70;14.43;;;8.90;99.20;;;;;;4319726;33;20153;-77
2021/04/20 00:50:39;;;;;;;29.53;14.70;;;8.80;99.90;;;;;;4320064;33;20184;-77
2021/04/20 00:53:08;;;;;;;26.50;13.80;;;8.80;99.80;;;;;;4320129;33;20188;-77
2021/04/20 00:55:35;;;;;;;26.80;13.97;;;8.80;99.90;;;;;;4321682;33;20197;-77
2021/04/20 00:58:03;;;;;;;26.73;13.93;;;8.80;99.90;;;;;;4319834;33;20180;-77
2021/04/20 01:00:32;;;;;;;25.50;14.37;;;8.70;99.90;;;;;;4323031;33;20219;-77
2021/04/20 01:02:59;;;;;;;27.70;13.57;;;8.70;99.90;;;;;;4323818;33;20225;-77
2021/04/20 01:05:31;;;;;;;24.87;13.80;;;8.70;99.90;;;;;;4321517;33;20480;-77
2021/04/20 01:08:00;;;;;;;25.73;13.23;;;8.60;99.90;;;;;;4322758;33;20157;-77
2021/04/20 01:10:27;;;;;;;23.10;13.03;;;8.60;99.90;;;;;;4322512;33;20199;-78
2021/04/20 01:12:54;;;;;;;25.77;13.30;;;8.60;99.90;;;;;;4323821;33;20205;-77
2021/04/20 01:15:21;;;;;;;23.60;13.30;;;8.60;99.90;;;;;;4322289;33;20208;-77
2021/04/20 01:17:48;;;;;;;23.77;13.07;;;8.50;99.90;;;;;;4322603;33;20467;-77
2021/04/20 01:20:15;;;;;;;25.40;13.03;;;8.50;99.90;;;;;;4322428;33;20190;-77
2021/04/20 01:22:44;;;;;;;22.50;13.13;;;8.50;99.90;;;;;;4322366;33;20189;-77
2021/04/20 01:25:13;;;;;;;22.67;13.03;;;8.40;99.90;;;;;;4322139;33;20435;-77
2021/04/20 01:27:40;;;;;;;23.80;12.80;;;8.40;99.90;;;;;;4323703;33;20167;-77
2021/04/20 01:30:10;;;;;;;22.40;12.90;;;8.40;99.90;;;;;;4321171;33;20415;-77
2021/04/20 01:32:39;;;;;;;21.93;12.97;;;8.30;99.90;;;;;;4322478;33;20195;-77
2021/04/20 01:35:11;;;;;;;21.50;12.53;;;8.30;99.90;;;;;;4322375;33;20157;-77
2021/04/20 01:37:39;;;;;;;21.97;12.80;;;8.20;99.90;;;;;;4323642;33;20180;-78
2021/04/20 01:40:07;;;;;;;21.97;12.63;;;8.20;99.90;;;;;;4322980;33;20150;-77
2021/04/20 01:42:34;;;;;;;23.40;13.07;;;8.20;99.90;;;;;;4322092;33;20222;-77
2021/04/20 01:45:05;;;;;;;19.40;12.07;;;8.20;99.90;;;;;;4321909;33;20149;-77
2021/04/20 01:47:32;;;;;;;21.67;12.27;;;8.20;99.90;;;;;;4323408;33;20176;-77
2021/04/20 01:50:00;;;;;;;20.23;11.33;;;8.20;99.90;;;;;;4323378;33;20408;-77
2021/04/20 01:52:27;;;;;;;19.13;10.90;;;8.10;99.90;;;;;;4321887;33;20196;-77
2021/04/20 01:54:54;;;;;;;20.70;10.93;;;8.10;99.90;;;;;;4321828;33;20217;-77
2021/04/20 01:57:22;;;;;;;20.27;11.40;;;8.10;99.90;;;;;;4321823;33;20464;-77
2021/04/20 01:59:49;;;;;;;20.03;11.03;;;8.10;99.90;;;;;;4322735;33;20141;-77
2021/04/20 02:02:16;;;;;;;19.13;11.07;;;8.10;99.90;;;;;;4323453;33;20141;-77
2021/04/20 02:04:42;;;;;;;21.27;11.03;;;8.00;99.90;;;;;;4323218;33;20180;-77
2021/04/20 02:07:09;;;;;;;21.17;10.90;;;7.90;99.90;;;;;;4321751;33;20171;-76
2021/04/20 02:09:35;;;;;;;16.40;10.13;;;7.90;99.90;;;;;;4322055;33;20167;-76
2021/04/20 02:12:02;;;;;;;20.30;11.30;;;7.90;99.90;;;;;;4321625;33;20231;-77
2021/04/20 02:14:28;;;;;;;19.80;11.37;;;7.90;99.90;;;;;;4322861;33;20161;-77
2021/04/20 02:16:56;;;;;;;21.53;11.37;;;7.90;99.90;;;;;;4321880;33;20168;-76
2021/04/20 02:19:23;;;;;;;17.67;11.37;;;7.90;99.90;;;;;;4321937;33;20145;-76
2021/04/20 02:21:51;;;;;;;21.50;11.83;;;7.80;99.90;;;;;;4321440;33;20558;-77
2021/04/20 02:24:17;;;;;;;18.80;11.40;;;7.80;99.90;;;;;;4321516;33;20474;-76
2021/04/20 02:26:44;;;;;;;21.70;11.47;;;7.80;99.90;;;;;;4321483;33;20179;-77
2021/04/20 02:29:11;;;;;;;20.57;11.60;;;7.80;99.90;;;;;;4321423;33;20148;-77
2021/04/20 02:31:39;;;;;;;23.43;12.03;;;7.70;99.90;;;;;;4321327;33;20204;-77
2021/04/20 02:34:08;;;;;;;21.03;11.63;;;7.70;99.90;;;;;;4321335;33;20157;-77
2021/04/20 02:36:36;;;;;;;21.97;11.80;;;7.70;99.90;;;;;;4321552;33;20206;-77
2021/04/20 02:39:04;;;;;;;20.40;12.00;;;7.70;99.90;;;;;;4321347;33;20412;-77
2021/04/20 02:41:31;;;;;;;22.50;12.00;;;7.70;99.90;;;;;;4322669;33;20141;-77
2021/04/20 02:44:01;;;;;;;20.83;11.50;;;7.60;99.90;;;;;;4321154;33;20145;-77
2021/04/20 02:46:28;;;;;;;21.90;12.43;;;7.60;99.90;;;;;;4320592;33;20527;-77
2021/04/20 02:48:55;;;;;;;17.77;11.17;;;7.60;99.90;;;;;;4321169;33;20160;-77
2021/04/20 02:51:22;;;;;;;22.37;12.17;;;7.50;99.90;;;;;;4322717;33;20227;-77
2021/04/20 02:53:49;;;;;;;21.70;11.83;;;7.50;99.90;;;;;;4320258;33;20455;-77
2021/04/20 02:56:18;;;;;;;22.50;12.03;;;7.50;99.90;;;;;;4321250;33;20219;-77
2021/04/20 02:58:45;;;;;;;21.13;11.87;;;7.50;99.90;;;;;;4322431;33;20145;-77
2021/04/20 03:01:20;;;;;;;20.67;12.47;;;7.40;99.90;;;;;;4320870;33;20153;-77
2021/04/20 03:03:47;;;;;;;21.70;12.13;;;7.40;99.90;;;;;;4320994;33;20140;-77
2021/04/20 03:06:15;;;;;;;22.17;12.87;;;7.40;99.90;;;;;;4320924;33;20149;-77
2021/04/20 03:08:48;;;;;;;19.80;11.30;;;7.40;99.90;;;;;;4321173;33;20471;-77
2021/04/20 03:11:16;;;;;;;20.07;11.73;;;7.40;99.90;;;;;;4320926;33;20201;-77
2021/04/20 03:13:46;;;;;;;17.33;10.90;;;7.30;99.90;;;;;;4321200;33;20180;-77
2021/04/20 03:16:27;;;;;;;19.50;11.30;;;7.30;99.90;;;;;;4320804;33;20152;-77
2021/04/20 03:18:57;;;;;;;20.77;11.70;;;7.30;99.90;;;;;;4320290;33;20201;-77
2021/04/20 03:21:24;;;;;;;22.40;11.70;;;7.30;99.90;;;;;;4320610;33;20168;-77
2021/04/20 03:23:55;;;;;;;19.20;11.63;;;7.30;99.90;;;;;;4320746;33;20236;-77
2021/04/20 03:26:24;;;;;;;21.03;11.97;;;7.30;99.90;;;;;;4321547;33;20205;-77
2021/04/20 03:28:53;;;;;;;18.30;10.80;;;7.30;99.90;;;;;;4320090;33;20204;-77
2021/04/20 03:31:19;;;;;;;19.27;11.03;;;7.20;99.90;;;;;;4320487;33;20449;-77
2021/04/20 03:34:18;;;;;;;19.73;11.50;;;7.20;99.90;;;;;;4321935;33;20480;-77
2021/04/20 03:37:23;;;;;;;18.37;11.17;;;7.20;99.90;;;;;;4289565;33;20253;-77
2021/04/20 03:39:55;;;;;;;18.50;10.90;;;7.20;99.90;;;;;;4262033;33;20157;-77
2021/04/20 03:42:24;;;;;;;20.40;10.97;;;7.20;99.90;;;;;;4262090;33;20198;-77
2021/04/20 03:44:56;;;;;;;18.27;10.57;;;7.20;99.90;;;;;;4260915;33;20142;-77
2021/04/20 03:47:38;;;;;;;16.53;10.73;;;7.10;99.90;;;;;;4261896;33;20252;-77
2021/04/20 03:50:09;;;;;;;19.07;10.40;;;7.10;99.90;;;;;;4261355;33;20173;-77
2021/04/20 03:52:53;;;;;;;18.33;10.63;;;7.10;99.90;;;;;;4262192;33;20245;-77
2021/04/20 03:55:24;;;;;;;19.40;10.50;;;7.10;99.90;;;;;;4260344;33;20423;-75
2021/04/20 03:57:53;;;;;;;17.33;10.03;;;7.20;99.90;;;;;;4260344;33;20169;-76
2021/04/20 04:00:21;;;;;;;17.60;9.93;;;7.20;99.90;;;;;;4245953;33;20151;-77
2021/04/20 04:02:48;;;;;;;19.30;10.80;;;7.20;99.90;;;;;;4246577;33;20491;-77
2021/04/20 04:05:24;;;;;;;20.73;11.03;;;7.20;99.90;;;;;;4247765;33;20202;-76
2021/04/20 04:07:54;;;;;;;17.00;10.60;;;7.20;99.90;;;;;;4246235;33;20157;-76
2021/04/20 04:10:22;;;;;;;16.03;10.30;;;7.30;99.90;;;;;;4246469;33;20154;-77
2021/04/20 04:12:51;;;;;;;14.87;10.23;;;7.30;99.90;;;;;;4255921;33;20273;-76
2021/04/20 04:15:21;;;;;;;17.53;10.33;;;7.30;99.90;;;;;;4289795;33;20160;-77
2021/04/20 04:17:48;;;;;;;18.73;10.23;;;7.30;99.90;;;;;;4304937;33;20148;-76
2021/04/20 04:20:18;;;;;;;16.97;10.00;;;7.30;99.90;;;;;;4305057;33;20188;-77
2021/04/20 04:23:08;;;;;;;16.93;9.90;;;7.30;99.90;;;;;;4305460;33;20150;-77
2021/04/20 04:25:38;;;;;;;14.93;9.67;;;7.30;99.90;;;;;;4306658;33;20156;-77
2021/04/20 04:28:07;;;;;;;18.53;9.87;;;7.40;99.90;;;;;;4305435;33;20172;-76
2021/04/20 04:30:34;;;;;;;17.40;10.20;;;7.40;99.90;;;;;;4305469;33;20412;-76
2021/04/20 04:33:03;;;;;;;16.70;9.87;;;7.40;99.90;;;;;;4307105;33;20204;-77
2021/04/20 04:35:31;;;;;;;13.53;9.50;;;7.50;99.90;;;;;;4309630;33;20180;-77
2021/04/20 04:37:59;;;;;;;15.57;9.23;;;7.50;99.90;;;;;;4310165;33;20153;-77
2021/04/20 04:40:27;;;;;;;15.23;9.47;;;7.70;99.90;;;;;;4310123;33;20184;-77
2021/04/20 04:42:53;;;;;;;13.40;8.77;;;7.70;99.90;;;;;;4310301;33;20172;-77
2021/04/20 04:45:20;;;;;;;16.80;10.13;;;7.80;99.90;;;;;;4311528;33;20164;-77
2021/04/20 04:47:47;;;;;;;14.67;9.50;;;7.80;99.90;;;;;;4310467;33;20148;-78
2021/04/20 04:50:15;;;;;;;14.97;9.10;;;7.90;99.90;;;;;;4310110;33;20149;-78
2021/04/20 04:52:45;;;;;;;16.27;9.70;;;8.00;99.90;;;;;;4310038;33;20175;-78
2021/04/20 04:55:12;;;;;;;14.33;9.63;;;8.00;99.90;;;;;;4309859;33;20160;-78
2021/04/20 04:57:42;;;;;;;13.90;9.87;;;8.10;99.90;;;;;;4310089;33;20149;-78
2021/04/20 05:00:09;;;;;;;15.10;9.30;;;8.10;99.90;;;;;;4311497;33;20148;-78
2021/04/20 05:02:38;;;;;;;14.27;9.37;;;8.20;99.90;;;;;;4310035;33;20503;-78
2021/04/20 05:05:07;;;;;;;15.63;9.37;;;8.20;99.90;;;;;;4310862;33;20145;-78
2021/04/20 05:07:33;;;;;;;15.03;9.33;;;8.30;99.90;;;;;;4311400;33;20180;-78
2021/04/20 05:10:02;;;;;;;14.90;9.63;;;8.40;99.90;;;;;;4309928;33;20153;-78
2021/04/20 05:12:32;;;;;;;15.87;8.97;;;8.50;99.90;;;;;;4309905;33;20150;-76
2021/04/20 05:15:12;;;;;;;16.07;9.67;;;8.60;99.90;;;;;;4309830;33;20156;-77
2021/04/20 05:17:40;;;;;;;15.87;9.53;;;8.70;99.90;;;;;;4310754;33;20401;-77
2021/04/20 05:20:09;;;;;;;17.57;9.70;;;8.90;99.90;;;;;;4309553;33;20189;-77
2021/04/20 05:22:36;;;;;;;16.27;10.27;;;9.00;99.90;;;;;;4311238;33;20149;-77
2021/04/20 05:25:09;;;;;;;16.03;10.00;;;9.20;99.90;;;;;;4309880;33;20531;-77
2021/04/20 05:27:36;;;;;;;16.67;9.80;;;9.30;99.90;;;;;;4311282;33;20212;-77
2021/04/20 05:30:05;;;;;;;18.27;9.90;;;9.40;99.90;;;;;;4311551;33;20445;-79
2021/04/20 05:32:40;;;;;;;16.13;9.30;;;9.50;99.90;;;;;;4309148;33;20205;-77
2021/04/20 05:35:10;;;;;;;15.17;9.20;;;9.50;99.90;;;;;;4331561;33;20590;-77
2021/04/20 05:37:40;;;;;;;14.53;9.40;;;9.60;99.90;;;;;;4324142;33;20157;-76
2021/04/20 05:40:09;;;;;;;15.93;9.37;;;9.60;99.90;;;;;;4324324;33;20183;-76
2021/04/20 05:42:37;;;;;;;14.83;9.53;;;9.70;99.90;;;;;;4324243;33;20193;-77
2021/04/20 05:45:08;;;;;;;14.80;9.67;;;9.70;99.90;;;;;;4322867;33;20192;-77
2021/04/20 05:47:40;;;;;;;16.47;9.37;;;9.80;99.90;;;;;;4322079;33;20137;-77
2021/04/20 05:50:11;;;;;;;16.03;9.37;;;9.90;99.90;;;;;;4321972;33;20145;-77
2021/04/20 05:52:38;;;;;;;16.33;8.87;;;10.00;99.90;;;;;;4322279;33;20141;-76
2021/04/20 05:55:06;;;;;;;17.37;8.97;;;10.00;99.90;;;;;;4321615;33;20154;-76
2021/04/20 05:57:33;;;;;;;14.27;8.30;;;10.10;99.90;;;;;;4321774;33;20169;-76
2021/04/20 06:00:04;;;;;;;11.80;8.00;;;10.10;99.90;;;;;;4321798;33;20187;-76
2021/04/20 06:02:33;;;;;;;11.33;7.73;;;10.20;99.90;;;;;;4321725;33;20149;-77
2021/04/20 06:05:04;;;;;;;11.43;7.20;;;10.40;99.90;;;;;;4323055;33;20464;-77
2021/04/20 06:07:34;;;;;;;12.33;6.90;;;10.40;99.50;;;;;;4321648;33;20145;-77
2021/04/20 06:10:04;;;;;;;12.17;7.37;;;10.50;99.00;;;;;;4321625;33;20149;-77
2021/04/20 06:12:31;;;;;;;13.23;6.80;;;10.60;97.90;;;;;;4321529;33;20150;-75
2021/04/20 06:14:58;;;;;;;11.60;6.57;;;10.70;97.40;;;;;;4323013;33;20149;-75
2021/04/20 06:17:25;;;;;;;10.00;6.57;;;10.80;96.80;;;;;;4321529;33;20149;-79
2021/04/20 06:19:51;;;;;;;11.07;6.37;;;10.90;95.80;;;;;;4321172;33;20164;-77
2021/04/20 06:22:19;;;;;;;12.83;7.00;;;11.00;95.20;;;;;;4319612;33;20177;-77
2021/04/20 06:24:45;;;;;;;10.63;6.57;;;11.10;95.50;;;;;;4319913;33;20184;-78
2021/04/20 06:27:14;;;;;;;11.93;6.37;;;11.20;95.50;;;;;;4320127;33;20195;-78
2021/04/20 06:29:41;;;;;;;10.20;6.07;;;11.30;95.10;;;;;;4320407;33;20224;-76
2021/04/20 06:32:10;;;;;;;9.67;5.77;;;11.40;93.30;;;;;;4319421;33;20175;-77
2021/04/20 06:34:38;;;;;;;8.93;5.43;;;11.50;92.20;;;;;;4318913;33;20519;-77
2021/04/20 06:37:09;;;;;;;8.90;5.03;;;11.60;92.50;;;;;;4320614;33;20145;-78
2021/04/20 06:39:39;;;;;;;8.63;4.93;;;11.70;91.20;;;;;;4321376;33;20384;-77
2021/04/20 06:42:10;;;;;;;8.40;4.70;;;11.80;89.00;;;;;;4320434;33;20243;-76
2021/04/20 06:44:45;;;;;;;10.93;5.20;;;11.80;88.50;;;;;;4319677;33;20150;-77
2021/04/20 06:47:20;;;;;;;9.03;5.57;;;11.90;88.20;;;;;;4321463;33;20172;-78
2021/04/20 06:49:53;;;;;;;12.33;5.37;;;12.00;89.30;;;;;;4322473;33;20257;-77
2021/04/20 06:52:32;;;;;;;12.10;5.30;;;12.20;87.90;;;;;;4320884;33;20145;-78
2021/04/20 06:55:11;;;;;;;9.50;5.10;;;12.30;88.40;;;;;;4320836;33;20411;-78
2021/04/20 06:58:03;;;;;;;8.77;5.20;;;12.40;87.20;;;;;;4322413;33;20216;-77
2021/04/20 07:00:39;;;;;;;9.57;5.13;;;12.60;84.00;;;;;;4322312;33;20191;-77
2021/04/20 07:03:32;;;;;;;8.87;4.73;;;12.70;82.90;;;;;;4319959;33;20405;-78
2021/04/20 07:06:11;;;;;;;7.33;5.00;;;12.80;84.10;;;;;;4289924;33;20188;-77
2021/04/20 07:08:58;;;;;;;7.43;4.43;;;12.90;81.50;;;;;;4289437;33;20145;-77
2021/04/20 07:11:28;;;;;;;7.80;4.07;;;13.10;80.50;;;;;;4290116;33;20296;-77
2021/04/20 07:13:58;;;;;;;7.47;4.17;;;13.10;79.00;;;;;;4289438;33;20295;-78
2021/04/20 07:16:49;;;;;;;7.00;3.90;;;13.20;79.20;;;;;;4289056;33;20153;-78
2021/04/20 07:19:44;;;;;;;6.53;4.00;;;13.30;78.00;;;;;;4289402;33;20167;-77
2021/04/20 07:22:25;;;;;;;10.20;4.20;;;13.30;74.80;;;;;;4289311;33;20510;-78
2021/04/20 07:25:05;;;;;;;8.37;4.40;;;13.30;75.60;;;;;;4290584;33;20197;-79
2021/04/20 07:27:46;;;;;;;6.40;3.80;;;13.40;76.20;;;;;;4290663;33;20516;-78
2021/04/20 07:30:28;;;;;;;8.40;4.00;;;13.60;74.90;;;;;;4291118;33;20190;-78
2021/04/20 07:33:36;;;;;;;8.20;3.87;;;13.70;74.10;;;;;;4289160;33;20175;-78
2021/04/20 07:36:16;;;;;;;5.67;3.70;;;13.80;74.20;;;;;;4290659;33;20253;-78
2021/04/20 07:39:05;;;;;;;6.20;3.90;;;13.90;71.30;;;;;;4289135;33;20242;-79
2021/04/20 07:41:41;;;;;;;6.40;3.83;;;13.90;71.60;;;;;;4289063;33;20224;-78
2021/04/20 07:44:38;;;;;;;7.10;3.60;;;13.80;71.60;;;;;;4319537;33;20149;-79
2021/04/20 07:47:10;;;;;;;4.60;3.40;;;13.90;70.30;;;;;;4320377;33;20175;-79
2021/04/20 07:49:46;;;;;;;7.47;3.70;;;14.10;69.90;;;;;;4321238;33;20145;-79
2021/04/20 07:52:25;;;;;;;5.97;3.60;;;14.30;69.80;;;;;;4321611;33;20203;-79
2021/04/20 07:55:25;;;;;;;6.97;3.67;;;14.40;69.90;;;;;;4320402;33;20253;-78
2021/04/20 07:58:01;;;;;;;6.50;3.57;;;14.50;69.80;;;;;;4321270;33;20196;-79
2021/04/20 08:00:36;;;;;;;5.47;3.40;;;14.60;67.90;;;;;;4321561;33;20157;-78
2021/04/20 08:03:26;;;;;;;6.40;3.37;;;14.70;66.70;;;;;;4320059;33;20196;-78
2021/04/20 08:06:00;;;;;;;6.20;3.23;;;15.40;65.40;;;;;;4320161;33;20203;-79
2021/04/20 08:08:30;;;;;;;4.67;3.13;;;16.50;60.90;;;;;;4321143;33;20209;-78
2021/04/20 08:11:04;;;;;;;5.93;3.20;;;17.30;58.70;;;;;;4321364;33;20192;-79
2021/04/20 08:13:46;;;;;;;4.43;3.20;;;18.10;56.40;;;;;;4319857;33;20156;-78
2021/04/20 08:16:24;;;;;;;5.67;3.20;;;18.80;53.20;;;;;;4321348;33;20199;-79
2021/04/20 08:18:59;;;;;;;4.83;3.10;;;19.40;53.00;;;;;;4321119;33;20183;-78
2021/04/20 08:21:28;;;;;;;6.50;3.30;;;19.90;51.70;;;;;;4320201;33;20219;-79
2021/04/20 08:23:57;;;;;;;4.33;3.20;;;20.10;49.60;;;;;;4321160;33;20149;-79
2021/04/20 08:26:27;;;;;;;4.20;3.10;;;19.60;50.10;;;;;;4319816;33;20171;-79
2021/04/20 08:29:02;;;;;;;4.90;3.00;;;20.00;50.80;;;;;;4319155;33;20186;-78
2021/04/20 08:31:52;;;;;;;4.97;3.20;;;20.30;49.00;;;;;;4319976;33;20153;-78
2021/04/20 08:34:33;;;;;;;5.80;3.30;;;20.70;48.30;;;;;;4320050;33;20180;-78
2021/04/20 08:37:34;;;;;;;5.33;3.10;;;21.00;47.10;;;;;;4319574;33;20148;-79
2021/04/20 08:40:19;;;;;;;5.30;3.43;;;21.30;47.00;;;;;;4320097;33;20175;-79
2021/04/20 08:43:20;;;;;;;5.53;3.13;;;21.60;46.10;;;;;;4319994;33;20168;-76
2021/04/20 08:46:02;;;;;;;4.73;3.23;;;21.60;46.00;;;;;;4319677;33;20191;-78
2021/04/20 08:48:52;;;;;;;5.10;3.20;;;21.20;46.10;;;;;;4320408;33;20387;-78
2021/04/20 08:51:19;;;;;;;4.87;3.43;;;21.50;46.10;;;;;;4319433;33;20425;-76
2021/04/20 08:54:01;;;;;;;4.70;3.50;;;21.40;45.50;;;;;;4319289;33;20205;-76
2021/04/20 08:56:34;;;;;;;5.57;3.43;;;21.00;44.40;;;;;;4321050;33;20364;-78
2021/04/20 08:59:26;;;;;;;6.70;3.70;;;20.80;46.00;;;;;;4320887;33;20172;-77
2021/04/20 09:01:58;;;;;;;5.60;3.73;;;20.80;46.10;;;;;;4319373;33;20500;-77
2021/04/20 09:04:59;;;;;;;4.90;3.57;;;20.90;46.10;;;;;;4320886;33;20498;-77
2021/04/20 09:07:32;;;;;;;5.03;3.60;;;21.10;46.30;;;;;;4321211;33;20145;-76
2021/04/20 09:10:14;;;;;;;6.23;4.00;;;21.10;44.80;;;;;;4320655;33;20211;-75
2021/04/20 09:12:44;;;;;;;6.97;4.23;;;21.00;45.10;;;;;;4319163;33;20195;-76
2021/04/20 09:15:16;;;;;;;6.43;4.03;;;21.20;45.10;;;;;;4318985;33;20194;-76
2021/04/20 09:17:49;;;;;;;6.03;4.50;;;20.80;46.00;;;;;;4319804;33;20172;-75
2021/04/20 09:20:33;;;;;;;6.80;4.53;;;20.80;46.20;;;;;;4322759;33;20145;-75
2021/04/20 09:23:06;;;;;;;7.73;5.30;;;20.70;46.20;;;;;;4321932;33;20149;-76
2021/04/20 09:26:04;;;;;;;8.80;4.40;;;20.10;46.80;;;;;;4321831;33;20180;-76
2021/04/20 09:28:34;;;;;;;7.73;4.70;;;20.10;46.90;;;;;;4322956;33;20172;-74
2021/04/20 09:31:17;;;;;;;6.87;5.17;;;20.50;46.90;;;;;;4322505;33;20157;-75
2021/04/20 09:33:54;;;;;;;12.73;4.83;;;21.10;46.00;;;;;;4323665;33;20153;-74
2021/04/20 09:36:22;;;;;;;6.40;4.73;;;21.80;43.90;;;;;;4321779;33;20449;-74
2021/04/20 09:38:50;;;;;;;8.50;5.27;;;22.20;43.70;;;;;;4322258;33;20149;-76
2021/04/20 09:41:25;;;;;;;7.80;5.43;;;22.00;43.60;;;;;;4322189;33;20410;-74
2021/04/20 09:44:11;;;;;;;7.97;5.47;;;21.80;43.50;;;;;;4323275;33;20176;-77
2021/04/20 09:46:55;;;;;;;7.23;5.10;;;22.00;43.10;;;;;;4323049;33;20153;-76
2021/04/20 09:49:51;;;;;;;7.13;5.03;;;22.20;44.10;;;;;;4323637;33;20144;-76
2021/04/20 09:52:21;;;;;;;8.00;5.40;;;22.30;42.30;;;;;;4322389;33;20208;-75
2021/04/20 09:54:59;;;;;;;7.07;4.87;;;21.80;42.60;;;;;;4321092;33;20436;-76
2021/04/20 09:57:29;;;;;;;6.37;4.30;;;21.60;42.20;;;;;;4321325;33;20196;-74
2021/04/20 10:00:01;;;;;;;7.50;4.90;;;21.60;43.10;;;;;;4321476;33;20168;-75
2021/04/20 10:02:49;;;;;;;6.00;4.37;;;21.30;43.50;;;;;;4321491;33;20152;-75
2021/04/20 10:05:31;;;;;;;6.73;4.67;;;21.70;42.80;;;;;;4321922;33;20141;-76
2021/04/20 10:08:16;;;;;;;7.40;4.80;;;22.10;41.90;;;;;;4321361;33;20153;-76
2021/04/20 10:10:54;;;;;;;6.97;4.85;;;22.30;41.20;;;;;;4321961;33;20542;-76
2021/04/20 10:13:20;;;;;;;8.85;4.75;;;23.10;41.20;;;;;;4321080;33;20428;-76
2021/04/20 10:16:01;;;;;;;7.22;4.65;;;23.80;39.20;;;;;;4321530;33;20142;-77
2021/04/20 10:18:40;;;;;;;7.40;4.85;;;24.30;37.90;;;;;;4321424;33;20160;-76
2021/04/20 10:21:27;;;;;;;6.70;5.12;;;24.50;39.10;;;;;;4321675;33;20452;-76
2021/04/20 10:24:18;;;;;;;7.53;4.93;;;24.60;37.20;;;;;;4321297;33;20145;-76
2021/04/20 10:26:56;;;;;;;5.80;4.87;;;24.30;37.40;;;;;;4322704;33;20206;-76
2021/04/20 10:29:34;;;;;;;8.60;4.90;;;24.90;36.70;;;;;;4321221;33;20297;-77
2021/04/20 10:32:12;;;;;;;7.60;4.85;;;24.70;36.50;;;;;;4320500;33;20503;-76
2021/04/20 10:34:53;;;;;;;8.15;4.95;;;24.40;37.20;;;;;;4322383;33;20178;-77
2021/04/20 10:37:43;;;;;;;7.22;5.10;;;24.00;37.80;;;;;;4321030;33;20137;-75
2021/04/20 10:40:41;;;;;;;6.93;5.10;;;23.70;38.10;;;;;;4322202;33;20160;-77
2021/04/20 10:43:16;;;;;;;7.97;4.83;;;23.30;39.00;;;;;;4289997;33;20216;-76
2021/04/20 10:45:43;;;;;;;6.22;4.80;;;23.00;40.10;;;;;;4289855;33;20176;-76
2021/04/20 10:48:15;;;;;;;6.75;5.03;;;23.00;40.40;;;;;;4290126;33;20149;-77
2021/04/20 10:50:52;;;;;;;7.90;4.95;;;23.50;39.60;;;;;;4291102;33;20558;-77
2021/04/20 10:53:23;;;;;;;6.93;5.13;;;23.70;38.50;;;;;;4289895;33;20201;-77
2021/04/20 10:56:04;;;;;;;7.95;4.90;;;24.30;37.60;;;;;;4289667;33;20246;-77
2021/04/20 10:58:32;;;;;;;6.82;4.80;;;24.50;37.00;;;;;;4291615;33;20217;-78
2021/04/20 11:00:59;;;;;;;7.90;5.10;;;24.60;37.20;;;;;;4291573;33;20153;-77
2021/04/20 11:03:31;;;;;;;6.25;4.80;;;24.90;37.50;;;;;;4289525;33;20201;-78
2021/04/20 11:05:57;;;;;;;10.93;5.18;;;24.80;36.20;;;;;;4289940;33;20153;-77
2021/04/20 11:08:39;;;;;;;7.20;5.07;;;25.00;36.00;;;;;;4291326;33;20449;-77
2021/04/20 11:11:20;;;;;;;6.78;4.97;;;25.00;35.10;;;;;;4290690;33;20157;-77
2021/04/20 11:13:48;;;;;;;8.27;4.68;;;24.70;35.60;;;;;;4289958;33;20570;-77
2021/04/20 11:16:18;;;;;;;8.65;5.15;;;25.10;35.30;;;;;;4290217;33;20169;-77
2021/04/20 11:18:57;;;;;;;7.32;5.10;;;25.10;35.00;;;;;;4296737;33;20153;-77
2021/04/20 11:21:27;;;;;;;6.43;4.80;;;24.70;36.00;;;;;;4322059;33;20149;-78
2021/04/20 11:24:02;;;;;;;7.53;5.18;;;24.70;36.90;;;;;;4320089;33;20204;-77
2021/04/20 11:26:34;;;;;;;7.53;4.60;;;24.50;35.70;;;;;;4322078;33;20187;-78
2021/04/20 11:29:05;;;;;;;6.75;4.82;;;24.40;35.60;;;;;;4321289;33;20181;-77
2021/04/20 11:31:38;;;;;;;6.40;4.75;;;24.10;35.80;;;;;;4321764;33;20192;-78
2021/04/20 11:34:20;;;;;;;7.15;4.32;;;23.50;37.30;;;;;;4320549;33;20413;-78
2021/04/20 11:36:56;;;;;;;6.97;4.77;;;23.10;38.70;;;;;;4322329;33;20153;-78
2021/04/20 11:39:37;;;;;;;6.07;4.60;;;22.90;39.70;;;;;;4322159;33;20172;-79
2021/04/20 11:42:24;;;;;;;6.00;4.60;;;22.40;39.20;;;;;;4321913;33;20228;-79
2021/04/20 11:45:18;;;;;;;6.68;4.30;;;22.20;39.80;;;;;;4322066;33;20221;-79
2021/04/20 11:47:56;;;;;;;6.67;4.40;;;21.90;41.00;;;;;;4290549;33;20192;-79
2021/04/20 11:50:26;;;;;;;5.90;4.43;;;21.70;42.60;;;;;;4290563;33;20244;-78
2021/04/20 11:53:03;;;;;;;7.60;4.23;;;21.50;41.40;;;;;;4289281;33;20197;-79
2021/04/20 11:55:37;;;;;;;5.73;4.43;;;21.20;41.50;;;;;;4290431;33;20157;-78
2021/04/20 11:58:10;;;;;;;5.80;4.10;;;20.90;42.50;;;;;;4288454;33;20177;-78
2021/04/20 12:00:40;;;;;;;8.57;4.10;;;20.60;43.50;;;;;;4290431;33;20233;-77
2021/04/20 12:03:10;;;;;;;7.30;4.00;;;20.60;43.50;;;;;;4289968;33;20205;-77
2021/04/20 12:05:38;;;;;;;6.67;4.10;;;20.40;42.80;;;;;;4288936;33;20208;-78
2021/04/20 12:08:09;;;;;;;6.40;4.17;;;20.30;43.90;;;;;;4289819;33;20170;-78
2021/04/20 12:10:37;;;;;;;6.70;4.47;;;20.40;44.10;;;;;;4288738;33;20181;-78
2021/04/20 12:13:05;;;;;;;5.17;3.93;;;20.60;43.60;;;;;;4289714;33;20146;-78
2021/04/20 12:15:32;;;;;;;7.23;4.33;;;20.80;43.70;;;;;;4288546;33;20480;-78
2021/04/20 12:18:05;;;;;;;6.77;4.40;;;21.10;43.60;;;;;;4289810;33;20181;-78
2021/04/20 12:20:32;;;;;;;5.77;4.10;;;21.30;42.80;;;;;;4288643;33;20170;-78
2021/04/20 12:23:00;;;;;;;7.23;5.10;;;21.80;42.30;;;;;;4288708;33;20167;-79
2021/04/20 12:25:28;;;;;;;6.33;4.50;;;22.80;40.70;;;;;;4314474;33;20154;-78
2021/04/20 12:28:02;;;;;;;7.43;4.60;;;23.70;37.60;;;;;;4319637;33;20187;-79
2021/04/20 12:30:31;;;;;;;6.25;4.50;;;24.60;36.20;;;;;;4319971;33;20160;-78
2021/04/20 12:32:58;;;;;;;8.38;4.85;;;25.40;35.90;;;;;;4320099;33;20187;-78
2021/04/20 12:35:27;;;;;;;7.62;4.78;;;26.20;35.00;;;;;;4319608;33;20175;-77
2021/04/20 12:37:58;;;;;;;7.70;5.28;;;26.60;33.20;;;;;;4320790;33;20371;-79
2021/04/20 12:40:25;;;;;;;7.12;5.25;;;26.70;33.30;;;;;;4319136;33;20192;-78
2021/04/20 12:43:00;;;;;;;9.85;5.37;;;26.80;33.30;;;;;;4319916;33;20187;-78
2021/04/20 12:45:37;;;;;;;7.50;5.12;;;26.40;32.90;;;;;;4320401;33;20190;-78
2021/04/20 12:48:05;;;;;;;7.93;5.30;;;25.10;34.90;;;;;;4321333;33;20199;-79
2021/04/20 12:50:44;;;;;;;6.07;4.85;;;24.60;36.40;;;;;;4320517;33;20161;-78
2021/04/20 12:53:14;;;;;;;6.57;4.82;;;23.40;38.20;;;;;;4319646;33;20153;-77
2021/04/20 12:55:43;;;;;;;7.30;4.80;;;22.40;40.70;;;;;;4321901;33;20176;-79
2021/04/20 12:58:15;;;;;;;7.07;4.53;;;21.20;43.20;;;;;;4322656;33;20153;-78
2021/04/20 13:00:42;;;;;;;7.67;4.30;;;20.50;45.60;;;;;;4322712;33;20161;-77
2021/04/20 13:03:09;;;;;;;5.60;4.30;;;20.10;45.70;;;;;;4322714;33;20167;-78
2021/04/20 13:05:39;;;;;;;6.40;4.30;;;19.90;45.10;;;;;;4322517;33;20149;-77
2021/04/20 13:08:11;;;;;;;4.60;3.20;;;19.40;46.40;;;;;;4322371;33;20144;-77
2021/04/20 13:10:40;;;;;;;5.20;3.10;;;19.00;47.40;;;;;;4322485;33;20193;-76
2021/04/20 13:13:11;;;;;;;3.90;3.00;;;18.80;47.40;;;;;;4323681;33;20165;-78